createdAt,value
2018-07-28T00:00:39.441Z,17.1
2018-07-28T00:01:29.793Z,17.1
2018-07-28T00:02:19.821Z,17.1
2018-07-28T00:03:09.912Z,17.1
2018-07-28T00:03:59.685Z,17.1
2018-07-28T00:04:50.020Z,17.1
2018-07-28T00:05:40.066Z,17.1
2018-07-28T00:06:30.139Z,17.1
2018-07-28T00:07:20.189Z,17.1
2018-07-28T00:08:10.255Z,17.1
2018-07-28T00:13:10.633Z,16.9
2018-07-28T00:14:00.696Z,16.9
2018-07-28T00:14:50.489Z,16.9
2018-07-28T00:15:40.831Z,16.9
2018-07-28T00:16:30.630Z,16.9
2018-07-28T00:17:20.948Z,16.9
2018-07-28T00:18:10.753Z,16.9
2018-07-28T00:19:01.090Z,16.9
2018-07-28T00:19:51.157Z,16.9
2018-07-28T00:20:40.945Z,16.9
2018-07-28T00:21:31.275Z,16.8
2018-07-28T00:22:21.357Z,16.8
2018-07-28T00:23:11.428Z,16.8
2018-07-28T00:24:01.226Z,16.8
2018-07-28T00:24:51.528Z,16.8
2018-07-28T00:25:41.647Z,16.8
2018-07-28T00:26:31.724Z,16.8
2018-07-28T00:27:21.739Z,16.8
2018-07-28T00:28:11.806Z,16.8
2018-07-28T00:29:01.880Z,16.7
2018-07-28T00:29:51.933Z,16.7
2018-07-28T00:30:41.842Z,16.7
2018-07-28T00:31:32.063Z,16.7
2018-07-28T00:32:22.131Z,16.7
2018-07-28T00:33:12.213Z,16.7
2018-07-28T00:34:02.288Z,16.7
2018-07-28T00:34:52.337Z,16.6
2018-07-28T00:35:42.400Z,16.6
2018-07-28T00:36:32.170Z,16.6
2018-07-28T00:37:22.514Z,16.6
2018-07-28T00:38:12.307Z,16.6
2018-07-28T00:39:02.360Z,16.6
2018-07-28T00:39:52.439Z,16.6
2018-07-28T00:40:42.502Z,16.6
2018-07-28T00:41:32.853Z,16.6
2018-07-28T00:42:22.909Z,16.6
2018-07-28T00:43:12.955Z,16.6
2018-07-28T00:44:03.067Z,16.6
2018-07-28T00:44:52.585Z,16.6
2018-07-28T00:45:43.158Z,16.6
2018-07-28T00:46:33.224Z,16.5
2018-07-28T00:47:23.002Z,16.5
2018-07-28T00:48:13.344Z,16.5
2018-07-28T00:49:03.445Z,16.5
2018-07-28T00:49:53.467Z,16.5
2018-07-28T00:50:43.242Z,16.5
2018-07-28T00:51:33.642Z,16.4
2018-07-28T00:52:23.659Z,16.4
2018-07-28T00:53:13.459Z,16.4
2018-07-28T00:54:03.789Z,16.4
2018-07-28T00:54:53.853Z,16.4
2018-07-28T00:55:43.362Z,16.4
2018-07-28T00:56:33.996Z,16.4
2018-07-28T00:57:23.498Z,16.4
2018-07-28T00:58:13.823Z,16.4
2018-07-28T00:59:04.184Z,16.4
2018-07-28T00:59:53.685Z,16.4
2018-07-28T01:00:44.299Z,16.3
2018-07-28T01:01:34.364Z,16.3
2018-07-28T01:02:24.485Z,16.3
2018-07-28T01:03:14.521Z,16.3
2018-07-28T01:04:04.007Z,16.3
2018-07-28T01:04:54.630Z,16.3
2018-07-28T01:05:44.690Z,16.3
2018-07-28T01:06:34.774Z,16.3
2018-07-28T01:07:24.855Z,16.3
2018-07-28T01:08:14.635Z,16.3
2018-07-28T01:09:04.681Z,16.3
2018-07-28T01:09:55.033Z,16.3
2018-07-28T01:10:44.826Z,16.3
2018-07-28T01:11:35.143Z,16.3
2018-07-28T01:12:25.224Z,16.3
2018-07-28T01:13:15.294Z,16.2
2018-07-28T01:14:05.355Z,16.2
2018-07-28T01:14:55.420Z,16.2
2018-07-28T01:15:45.198Z,16.2
2018-07-28T01:16:35.572Z,16.1
2018-07-28T01:17:25.053Z,16.2
2018-07-28T01:18:15.665Z,16.2
2018-07-28T01:19:05.755Z,16.1
2018-07-28T01:19:55.820Z,16.1
2018-07-28T01:20:45.567Z,16.1
2018-07-28T01:21:35.630Z,16.1
2018-07-28T01:22:25.988Z,16.1
2018-07-28T01:23:15.808Z,16.1
2018-07-28T01:24:06.112Z,16.1
2018-07-28T01:24:56.154Z,16.1
2018-07-28T01:25:46.236Z,16.1
2018-07-28T01:26:36.308Z,16.1
2018-07-28T01:27:26.353Z,16.1
2018-07-28T01:28:16.415Z,16.1
2018-07-28T01:29:06.198Z,16.1
2018-07-28T01:29:56.558Z,16.1
2018-07-28T01:30:46.323Z,16
2018-07-28T01:31:36.688Z,16
2018-07-28T01:32:26.741Z,16
2018-07-28T01:33:16.802Z,16
2018-07-28T01:34:06.577Z,16
2018-07-28T01:34:56.945Z,16
2018-07-28T01:35:46.998Z,16
2018-07-28T01:36:37.053Z,16
2018-07-28T01:37:26.856Z,16
2018-07-28T01:38:17.199Z,16
2018-07-28T01:39:07.308Z,16
2018-07-28T01:39:57.059Z,16
2018-07-28T01:40:47.398Z,15.9
2018-07-28T01:41:37.454Z,15.9
2018-07-28T01:42:27.256Z,15.9
2018-07-28T01:43:17.582Z,16
2018-07-28T01:44:07.655Z,15.9
2018-07-28T01:44:57.730Z,16
2018-07-28T01:45:47.550Z,15.9
2018-07-28T01:46:37.578Z,15.9
2018-07-28T01:47:27.906Z,15.9
2018-07-28T01:48:17.973Z,15.9
2018-07-28T01:49:08.033Z,15.9
2018-07-28T01:49:58.159Z,15.9
2018-07-28T01:50:48.159Z,15.9
2018-07-28T01:51:38.240Z,15.9
2018-07-28T01:52:28.025Z,15.9
2018-07-28T01:53:18.391Z,15.9
2018-07-28T01:54:08.448Z,15.9
2018-07-28T01:54:58.497Z,15.9
2018-07-28T01:55:48.271Z,15.9
2018-07-28T01:56:38.326Z,15.9
2018-07-28T01:57:28.654Z,15.9
2018-07-28T01:58:18.437Z,15.9
2018-07-28T01:59:08.805Z,15.9
2018-07-28T01:59:58.875Z,15.9
2018-07-28T02:00:48.915Z,15.9
2018-07-28T02:01:38.711Z,15.9
2018-07-28T02:02:29.053Z,15.9
2018-07-28T02:03:19.117Z,15.9
2018-07-28T02:04:09.178Z,15.9
2018-07-28T02:04:58.675Z,15.9
2018-07-28T02:05:49.311Z,15.9
2018-07-28T02:06:39.382Z,15.9
2018-07-28T02:07:29.453Z,15.9
2018-07-28T02:08:19.222Z,15.9
2018-07-28T02:09:09.563Z,15.9
2018-07-28T02:09:59.640Z,15.9
2018-07-28T02:10:49.418Z,15.9
2018-07-28T02:11:39.488Z,15.9
2018-07-28T02:12:29.558Z,15.9
2018-07-28T02:13:19.876Z,15.9
2018-07-28T02:14:09.705Z,15.9
2018-07-28T02:14:59.743Z,15.9
2018-07-28T02:15:50.086Z,15.9
2018-07-28T02:16:40.166Z,15.9
2018-07-28T02:17:29.965Z,15.9
2018-07-28T02:18:19.998Z,15.9
2018-07-28T02:19:10.090Z,15.9
2018-07-28T02:19:59.838Z,15.9
2018-07-28T02:20:50.197Z,15.9
2018-07-28T02:21:40.545Z,15.8
2018-07-28T02:22:30.597Z,15.9
2018-07-28T02:23:20.661Z,15.9
2018-07-28T02:24:10.460Z,15.8
2018-07-28T02:25:00.792Z,15.8
2018-07-28T02:25:50.587Z,15.8
2018-07-28T02:26:40.927Z,15.8
2018-07-28T02:27:30.994Z,15.8
2018-07-28T02:28:21.049Z,15.8
2018-07-28T02:29:11.120Z,15.8
2018-07-28T02:30:01.188Z,15.8
2018-07-28T02:30:51.251Z,15.8
2018-07-28T02:31:41.306Z,15.8
2018-07-28T02:32:31.373Z,15.8
2018-07-28T02:33:21.161Z,15.8
2018-07-28T02:34:11.224Z,15.8
2018-07-28T02:35:01.585Z,15.8
2018-07-28T02:35:51.618Z,15.8
2018-07-28T02:36:41.686Z,15.8
2018-07-28T02:37:31.757Z,15.8
2018-07-28T02:38:21.815Z,15.8
2018-07-28T02:39:11.889Z,15.8
2018-07-28T02:40:01.369Z,15.8
2018-07-28T02:40:51.714Z,15.8
2018-07-28T02:41:42.079Z,15.8
2018-07-28T02:42:31.589Z,15.8
2018-07-28T02:43:22.211Z,15.7
2018-07-28T02:44:12.258Z,15.8
2018-07-28T02:45:02.334Z,15.8
2018-07-28T02:45:52.095Z,15.8
2018-07-28T02:46:42.442Z,15.8
2018-07-28T02:47:32.225Z,15.8
2018-07-28T02:48:22.578Z,15.7
2018-07-28T02:49:12.635Z,15.7
2018-07-28T02:50:02.754Z,15.7
2018-07-28T02:50:52.834Z,15.8
2018-07-28T02:51:42.294Z,15.7
2018-07-28T02:52:32.649Z,15.7
2018-07-28T02:53:22.966Z,15.7
2018-07-28T02:54:13.043Z,15.7
2018-07-28T02:55:02.827Z,15.7
2018-07-28T02:55:53.217Z,15.7
2018-07-28T02:56:43.239Z,15.7
2018-07-28T02:57:33.305Z,15.7
2018-07-28T02:58:23.378Z,15.7
2018-07-28T02:59:13.424Z,15.6
2018-07-28T03:00:03.203Z,15.6
2018-07-28T03:00:53.298Z,15.6
2018-07-28T03:01:43.347Z,15.6
2018-07-28T03:02:33.707Z,15.6
2018-07-28T03:03:23.744Z,15.6
2018-07-28T03:04:13.527Z,15.6
2018-07-28T03:05:03.928Z,15.6
2018-07-28T03:05:53.940Z,15.6
2018-07-28T03:06:44.007Z,15.6
2018-07-28T03:07:34.041Z,15.6
2018-07-28T03:08:24.250Z,15.6
2018-07-28T03:09:13.929Z,15.6
2018-07-28T03:10:04.270Z,15.6
2018-07-28T03:10:54.322Z,15.6
2018-07-28T03:11:44.395Z,15.6
2018-07-28T03:12:34.442Z,15.6
2018-07-28T03:13:24.507Z,15.6
2018-07-28T03:14:14.294Z,15.6
2018-07-28T03:15:04.667Z,15.6
2018-07-28T03:15:54.135Z,15.6
2018-07-28T03:16:44.494Z,15.6
2018-07-28T03:17:34.874Z,15.6
2018-07-28T03:18:25.008Z,15.5
2018-07-28T03:19:14.958Z,15.5
2018-07-28T03:20:05.023Z,15.5
2018-07-28T03:20:54.830Z,15.5
2018-07-28T03:21:44.879Z,15.5
2018-07-28T03:22:35.200Z,15.5
2018-07-28T03:23:25.265Z,15.5
2018-07-28T03:24:15.335Z,15.5
2018-07-28T03:25:05.424Z,15.5
2018-07-28T03:25:55.496Z,15.5
2018-07-28T03:26:45.561Z,15.5
2018-07-28T03:27:35.325Z,15.5
2018-07-28T03:28:25.705Z,15.5
2018-07-28T03:29:15.739Z,15.5
2018-07-28T03:30:05.531Z,15.4
2018-07-28T03:30:55.409Z,15.4
2018-07-28T03:31:45.938Z,15.4
2018-07-28T03:32:36.035Z,15.5
2018-07-28T03:33:26.059Z,15.4
2018-07-28T03:34:15.848Z,15.5
2018-07-28T03:35:05.903Z,15.4
2018-07-28T03:35:56.239Z,15.4
2018-07-28T03:36:46.037Z,15.4
2018-07-28T03:37:36.377Z,15.4
2018-07-28T03:38:26.151Z,15.4
2018-07-28T03:39:16.242Z,15.4
2018-07-28T03:40:06.566Z,15.4
2018-07-28T03:40:56.067Z,15.4
2018-07-28T03:41:46.681Z,15.4
2018-07-28T03:42:36.474Z,15.4
2018-07-28T03:43:26.528Z,15.4
2018-07-28T03:44:16.887Z,15.4
2018-07-28T03:45:06.653Z,15.4
2018-07-28T03:45:56.720Z,15.4
2018-07-28T03:46:47.076Z,15.4
2018-07-28T03:47:37.136Z,15.4
2018-07-28T03:48:26.921Z,15.4
2018-07-28T03:49:17.575Z,15.4
2018-07-28T03:50:07.326Z,15.4
2018-07-28T03:50:57.399Z,15.4
2018-07-28T03:51:47.453Z,15.5
2018-07-28T03:52:37.533Z,15.4
2018-07-28T03:53:27.583Z,15.5
2018-07-28T03:54:17.655Z,15.4
2018-07-28T03:55:07.440Z,15.5
2018-07-28T03:55:57.772Z,15.5
2018-07-28T03:56:47.578Z,15.5
2018-07-28T03:57:37.901Z,15.5
2018-07-28T03:58:27.975Z,15.5
2018-07-28T03:59:18.042Z,15.5
2018-07-28T04:00:08.104Z,15.5
2018-07-28T04:00:57.900Z,15.5
2018-07-28T04:01:48.208Z,15.5
2018-07-28T04:02:38.272Z,15.6
2018-07-28T04:03:27.776Z,15.6
2018-07-28T04:04:18.941Z,15.6
2018-07-28T04:05:08.460Z,15.6
2018-07-28T04:05:58.547Z,15.6
2018-07-28T04:06:48.591Z,15.6
2018-07-28T04:07:38.667Z,15.6
2018-07-28T04:08:28.460Z,15.6
2018-07-28T04:09:18.792Z,15.6
2018-07-28T04:10:08.578Z,15.6
2018-07-28T04:10:58.935Z,15.6
2018-07-28T04:11:48.996Z,15.6
2018-07-28T04:12:38.779Z,15.6
2018-07-28T04:13:29.111Z,15.6
2018-07-28T04:14:19.292Z,15.7
2018-07-28T04:15:09.250Z,15.7
2018-07-28T04:15:59.295Z,15.7
2018-07-28T04:16:49.402Z,15.8
2018-07-28T04:17:39.451Z,15.8
2018-07-28T04:18:29.521Z,15.8
2018-07-28T04:19:19.582Z,15.8
2018-07-28T04:20:09.670Z,15.8
2018-07-28T04:20:59.706Z,15.8
2018-07-28T04:21:49.767Z,15.9
2018-07-28T04:22:39.827Z,15.9
2018-07-28T04:23:29.895Z,15.9
2018-07-28T04:24:19.966Z,15.9
2018-07-28T04:25:10.036Z,15.9
2018-07-28T04:26:00.128Z,16
2018-07-28T04:26:50.157Z,16.1
2018-07-28T04:27:40.223Z,16.1
2018-07-28T04:28:30.159Z,16.1
2018-07-28T04:29:20.080Z,16.1
2018-07-28T04:30:10.426Z,16.2
2018-07-28T04:31:00.495Z,16.3
2018-07-28T04:31:50.530Z,16.3
2018-07-28T04:32:40.605Z,16.3
2018-07-28T04:33:30.669Z,16.4
2018-07-28T04:34:20.769Z,16.4
2018-07-28T04:35:10.799Z,16.5
2018-07-28T04:36:00.601Z,16.6
2018-07-28T04:36:50.916Z,16.6
2018-07-28T04:37:41.003Z,16.7
2018-07-28T04:38:31.073Z,16.8
2018-07-28T04:39:20.561Z,16.8
2018-07-28T04:40:11.178Z,16.8
2018-07-28T04:41:01.251Z,16.9
2018-07-28T04:42:41.355Z,17.1
2018-07-28T04:43:31.545Z,17.1
2018-07-28T04:44:21.238Z,17.2
2018-07-28T04:45:11.568Z,17.3
2018-07-28T04:46:01.624Z,17.3
2018-07-28T04:46:51.696Z,17.4
2018-07-28T04:47:41.756Z,17.5
2018-07-28T04:48:31.815Z,17.6
2018-07-28T04:49:21.901Z,17.6
2018-07-28T04:50:11.656Z,17.8
2018-07-28T04:51:02.006Z,17.8
2018-07-28T04:51:52.060Z,17.9
2018-07-28T04:52:42.149Z,18
2018-07-28T04:53:31.929Z,18.1
2018-07-28T04:54:21.989Z,18.2
2018-07-28T04:55:12.081Z,18.3
2018-07-28T04:56:02.425Z,18.4
2018-07-28T04:56:52.469Z,18.5
2018-07-28T04:57:42.534Z,18.6
2018-07-28T04:59:22.370Z,18.8
2018-07-28T05:00:12.768Z,18.9
2018-07-28T05:01:02.793Z,19
2018-07-28T05:01:52.577Z,19.1
2018-07-28T05:02:42.931Z,19.3
2018-07-28T05:03:33.079Z,19.4
2018-07-28T05:04:23.048Z,19.5
2018-07-28T05:05:12.849Z,19.6
2018-07-28T05:06:03.188Z,19.7
2018-07-28T05:06:52.955Z,19.8
2018-07-28T05:07:44.204Z,19.9
2018-07-28T05:08:33.166Z,20.1
2018-07-28T05:09:23.146Z,20.2
2018-07-28T05:10:13.518Z,20.3
2018-07-28T05:11:03.572Z,20.5
2018-07-28T05:11:53.343Z,20.6
2018-07-28T05:12:43.692Z,20.7
2018-07-28T05:13:33.741Z,20.8
2018-07-28T05:14:23.805Z,20.9
2018-07-28T05:15:13.605Z,21.1
2018-07-28T05:16:53.992Z,21.3
2018-07-28T05:17:44.060Z,21.4
2018-07-28T05:18:33.857Z,21.5
2018-07-28T05:19:23.911Z,21.6
2018-07-28T05:20:13.989Z,21.7
2018-07-28T05:21:04.050Z,21.8
2018-07-28T05:21:54.397Z,21.9
2018-07-28T05:22:44.447Z,22.1
2018-07-28T05:23:34.507Z,22.1
2018-07-28T05:24:24.597Z,22.3
2018-07-28T05:25:14.634Z,22.4
2018-07-28T05:26:04.420Z,22.4
2018-07-28T05:26:54.769Z,22.6
2018-07-28T05:27:44.867Z,22.7
2018-07-28T05:28:34.648Z,22.8
2018-07-28T05:29:24.971Z,22.9
2018-07-28T05:30:15.064Z,23
2018-07-28T05:31:04.833Z,23.1
2018-07-28T05:31:54.603Z,23.3
2018-07-28T05:32:45.229Z,23.4
2018-07-28T05:33:35.024Z,23.6
2018-07-28T05:34:25.374Z,23.8
2018-07-28T05:35:15.450Z,24.1
2018-07-28T05:36:05.523Z,24.3
2018-07-28T05:36:55.575Z,24.5
2018-07-28T05:37:45.350Z,24.8
2018-07-28T05:38:35.681Z,25
2018-07-28T05:39:25.458Z,25.1
2018-07-28T05:40:15.808Z,25.3
2018-07-28T05:41:05.875Z,25.4
2018-07-28T05:41:55.955Z,25.6
2018-07-28T05:42:46.005Z,25.6
2018-07-28T05:43:36.071Z,25.7
2018-07-28T05:44:25.600Z,25.8
2018-07-28T05:45:16.201Z,25.8
2018-07-28T05:46:06.297Z,25.9
2018-07-28T05:46:56.049Z,25.9
2018-07-28T05:47:46.380Z,26
2018-07-28T05:48:36.163Z,26.1
2018-07-28T05:49:26.286Z,26.1
2018-07-28T05:50:16.992Z,26.2
2018-07-28T05:51:06.632Z,26.3
2018-07-28T05:51:56.695Z,26.4
2018-07-28T05:52:46.783Z,26.5
2018-07-28T05:53:36.568Z,26.7
2018-07-28T05:54:26.910Z,26.8
2018-07-28T05:55:16.972Z,27
2018-07-28T05:56:07.039Z,27.2
2018-07-28T05:56:56.821Z,27.4
2018-07-28T05:57:47.157Z,27.6
2018-07-28T05:59:27.276Z,28.1
2018-07-28T06:00:17.063Z,28.2
2018-07-28T06:01:07.400Z,28.4
2018-07-28T06:01:57.502Z,28.6
2018-07-28T06:02:47.890Z,22.2
2018-07-28T06:03:37.596Z,25.1
2018-07-28T06:04:27.408Z,33.5
2018-07-28T06:05:17.481Z,35.3
2018-07-28T06:06:07.825Z,35.8
2018-07-28T06:06:57.592Z,35.4
2018-07-28T06:07:47.943Z,34.8
2018-07-28T06:08:38.000Z,34.4
2018-07-28T06:09:28.062Z,34.2
2018-07-28T06:10:17.868Z,33.9
2018-07-28T06:11:07.931Z,33.8
2018-07-28T06:11:58.266Z,33.6
2018-07-28T06:12:47.769Z,33.4
2018-07-28T06:13:38.390Z,33.3
2018-07-28T06:14:28.487Z,33.2
2018-07-28T06:15:18.519Z,33.1
2018-07-28T06:16:08.320Z,33.1
2018-07-28T06:16:58.639Z,32.9
2018-07-28T06:17:48.722Z,32.8
2018-07-28T06:18:38.775Z,32.8
2018-07-28T06:19:28.837Z,32.8
2018-07-28T06:20:19.220Z,32.7
2018-07-28T06:21:08.976Z,32.6
2018-07-28T06:21:59.287Z,32.6
2018-07-28T06:22:49.088Z,32.5
2018-07-28T06:23:39.160Z,32.4
2018-07-28T06:24:29.227Z,32.4
2018-07-28T06:25:19.282Z,32.4
2018-07-28T06:26:09.066Z,32.3
2018-07-28T06:26:59.437Z,32.4
2018-07-28T06:27:49.521Z,32.5
2018-07-28T06:28:39.573Z,32.6
2018-07-28T06:29:29.336Z,32.8
2018-07-28T06:30:19.398Z,32.3
2018-07-28T06:31:09.730Z,32.3
2018-07-28T06:32:00.062Z,34.2
2018-07-28T06:32:49.923Z,35.9
2018-07-28T06:33:39.905Z,37
2018-07-28T06:34:29.991Z,37.4
2018-07-28T06:35:20.049Z,37.5
2018-07-28T06:36:10.109Z,37.4
2018-07-28T06:37:00.180Z,37.4
2018-07-28T06:37:49.971Z,37.2
2018-07-28T06:38:40.050Z,37.1
2018-07-28T06:39:30.224Z,37.1
2018-07-28T06:40:20.432Z,37.1
2018-07-28T06:41:10.496Z,36.7
2018-07-28T06:42:00.574Z,37.4
2018-07-28T06:42:50.632Z,37.9
2018-07-28T06:43:40.722Z,38.4
2018-07-28T06:44:30.767Z,38.6
2018-07-28T06:45:20.280Z,38.6
2018-07-28T06:46:10.648Z,38.6
2018-07-28T06:47:00.680Z,38.8
2018-07-28T06:47:51.037Z,39
2018-07-28T06:48:41.100Z,39.1
2018-07-28T06:49:30.962Z,39.3
2018-07-28T06:50:21.249Z,39.2
2018-07-28T06:51:11.012Z,39.2
2018-07-28T06:52:01.104Z,39.1
2018-07-28T06:52:51.410Z,39.1
2018-07-28T06:53:41.390Z,39.2
2018-07-28T06:54:31.537Z,39.2
2018-07-28T06:55:21.336Z,39.2
2018-07-28T06:56:11.668Z,39.3
2018-07-28T06:57:01.460Z,39.3
2018-07-28T06:57:51.795Z,39.3
2018-07-28T06:58:42.368Z,39.3
2018-07-28T06:59:31.932Z,39.3
2018-07-28T07:00:21.722Z,39.4
2018-07-28T07:01:12.054Z,39.4
2018-07-28T07:02:02.137Z,39.4
2018-07-28T07:02:52.166Z,39.6
2018-07-28T07:03:42.250Z,39.6
2018-07-28T07:04:32.300Z,39.7
2018-07-28T07:05:22.084Z,39.7
2018-07-28T07:06:12.157Z,39.7
2018-07-28T07:07:02.507Z,39.7
2018-07-28T07:07:52.577Z,39.8
2018-07-28T07:08:42.664Z,39.8
2018-07-28T07:09:32.709Z,39.8
2018-07-28T07:10:22.467Z,39.8
2018-07-28T07:11:12.811Z,39.9
2018-07-28T07:12:02.888Z,40.2
2018-07-28T07:12:52.935Z,40.7
2018-07-28T07:13:43.013Z,41.1
2018-07-28T07:14:32.806Z,41.4
2018-07-28T07:15:22.870Z,41.5
2018-07-28T07:16:13.212Z,40.9
2018-07-28T07:17:03.054Z,40.1
2018-07-28T07:17:53.335Z,39.5
2018-07-28T07:18:43.434Z,39.2
2018-07-28T07:19:33.469Z,39.1
2018-07-28T07:20:23.540Z,39.2
2018-07-28T07:21:13.602Z,39.4
2018-07-28T07:22:03.663Z,39.8
2018-07-28T07:22:53.735Z,40.1
2018-07-28T07:23:43.244Z,40.3
2018-07-28T07:24:33.848Z,40.5
2018-07-28T07:25:23.646Z,40.7
2018-07-28T07:26:13.979Z,40.9
2018-07-28T07:27:04.045Z,41.1
2018-07-28T07:27:54.123Z,41.4
2018-07-28T07:28:44.174Z,41.6
2018-07-28T07:29:34.251Z,41.8
2018-07-28T07:30:24.212Z,41.8
2018-07-28T07:31:14.375Z,41.6
2018-07-28T07:32:04.448Z,41.4
2018-07-28T07:32:54.500Z,41.3
2018-07-28T07:33:44.269Z,41.3
2018-07-28T07:34:34.624Z,41.3
2018-07-28T07:35:24.691Z,41.4
2018-07-28T07:36:15.129Z,41.6
2018-07-28T07:37:04.804Z,41.9
2018-07-28T07:37:54.597Z,42.3
2018-07-28T07:38:44.949Z,42.5
2018-07-28T07:39:34.992Z,42.5
2018-07-28T07:40:25.062Z,42.4
2018-07-28T07:41:15.125Z,42.3
2018-07-28T07:42:05.196Z,42.2
2018-07-28T07:42:55.266Z,42.2
2018-07-28T07:43:45.361Z,42.4
2018-07-28T07:44:35.145Z,42.6
2018-07-28T07:45:25.347Z,42.9
2018-07-28T07:46:15.234Z,43.3
2018-07-28T07:47:05.656Z,43.6
2018-07-28T07:47:55.677Z,43.6
2018-07-28T07:48:45.448Z,43.5
2018-07-28T07:49:35.774Z,43.3
2018-07-28T07:50:25.859Z,43.1
2018-07-28T07:51:15.645Z,43
2018-07-28T07:52:05.434Z,43.1
2018-07-28T07:52:56.038Z,43.1
2018-07-28T07:53:45.896Z,43.4
2018-07-28T07:54:36.221Z,43.8
2018-07-28T07:55:26.232Z,44.2
2018-07-28T07:56:15.739Z,44.5
2018-07-28T07:57:06.391Z,44.7
2018-07-28T07:57:56.472Z,44.8
2018-07-28T07:58:46.518Z,45
2018-07-28T07:59:36.563Z,45.1
2018-07-28T08:00:26.352Z,45.1
2018-07-28T08:01:16.407Z,45.1
2018-07-28T08:02:06.500Z,45.3
2018-07-28T08:02:56.820Z,45.6
2018-07-28T08:03:46.607Z,45.9
2018-07-28T08:04:36.685Z,46.1
2018-07-28T08:05:27.033Z,46.2
2018-07-28T08:06:17.171Z,46.1
2018-07-28T08:07:07.149Z,45.8
2018-07-28T08:07:57.206Z,45.7
2018-07-28T08:08:47.277Z,45.6
2018-07-28T08:09:37.335Z,45.6
2018-07-28T08:10:27.419Z,45.9
2018-07-28T08:11:17.461Z,46.4
2018-07-28T08:12:07.239Z,46.8
2018-07-28T08:12:57.311Z,47
2018-07-28T08:13:47.104Z,47.1
2018-07-28T08:14:37.710Z,47.3
2018-07-28T08:15:27.213Z,47.4
2018-07-28T08:16:17.561Z,47.6
2018-07-28T08:17:07.637Z,47.7
2018-07-28T08:17:57.750Z,47.6
2018-07-28T08:18:47.759Z,47.7
2018-07-28T08:19:38.094Z,47.9
2018-07-28T08:20:28.179Z,48.3
2018-07-28T08:21:17.967Z,48.5
2018-07-28T08:22:08.030Z,48.7
2018-07-28T08:22:58.378Z,48.8
2018-07-28T08:23:48.535Z,49
2018-07-28T08:24:37.936Z,49.2
2018-07-28T08:25:28.552Z,49.3
2018-07-28T08:26:18.624Z,49.5
2018-07-28T08:27:08.416Z,49.7
2018-07-28T08:27:58.489Z,49.7
2018-07-28T08:28:48.533Z,49.5
2018-07-28T08:29:38.909Z,49.6
2018-07-28T08:30:28.957Z,49.7
2018-07-28T08:31:19.027Z,49.5
2018-07-28T08:32:09.102Z,49.3
2018-07-28T08:32:59.162Z,49.1
2018-07-28T08:33:49.220Z,49
2018-07-28T08:34:38.992Z,49.3
2018-07-28T08:35:29.060Z,49.8
2018-07-28T08:36:19.125Z,50.1
2018-07-28T08:37:09.481Z,50.4
2018-07-28T08:37:59.390Z,50.6
2018-07-28T08:38:49.595Z,50.7
2018-07-28T08:39:39.682Z,50.9
2018-07-28T08:40:29.724Z,51
2018-07-28T08:41:19.802Z,51.2
2018-07-28T08:42:09.870Z,51.4
2018-07-28T08:42:59.652Z,51.6
2018-07-28T08:43:49.999Z,51.7
2018-07-28T08:44:40.042Z,51.8
2018-07-28T08:45:29.832Z,52
2018-07-28T08:46:20.182Z,52.2
2018-07-28T08:48:00.038Z,52.6
2018-07-28T08:48:50.588Z,52.7
2018-07-28T08:49:41.016Z,52.9
2018-07-28T08:50:30.534Z,53
2018-07-28T08:51:20.614Z,53.1
2018-07-28T08:52:10.654Z,53.3
2018-07-28T08:53:00.445Z,53.4
2018-07-28T08:53:50.498Z,53.6
2018-07-28T08:54:40.982Z,53.8
2018-07-28T08:55:31.117Z,53.9
2018-07-28T08:56:20.992Z,54.1
2018-07-28T08:57:10.484Z,54.3
2018-07-28T08:58:01.101Z,54.4
2018-07-28T08:58:51.175Z,54.6
2018-07-28T08:59:41.233Z,54.8
2018-07-28T09:00:31.301Z,55
2018-07-28T09:01:21.094Z,55.1
2018-07-28T09:02:11.423Z,54.9
2018-07-28T09:03:00.921Z,54.6
2018-07-28T09:03:51.571Z,54.4
2018-07-28T09:04:41.619Z,54.7
2018-07-28T09:05:31.411Z,55.1
2018-07-28T09:06:21.741Z,55.4
2018-07-28T09:07:11.807Z,55.7
2018-07-28T09:08:01.875Z,55.8
2018-07-28T09:08:51.950Z,56
2018-07-28T09:09:42.016Z,56.1
2018-07-28T09:10:31.957Z,56.3
2018-07-28T09:11:21.564Z,56.5
2018-07-28T09:12:11.915Z,56.6
2018-07-28T09:13:02.267Z,56.8
2018-07-28T09:13:52.064Z,56.8
2018-07-28T09:14:42.378Z,56.7
2018-07-28T09:15:32.170Z,56.8
2018-07-28T09:16:22.653Z,57.1
2018-07-28T09:17:12.335Z,57.3
2018-07-28T09:18:02.540Z,57.4
2018-07-28T09:18:52.165Z,57.3
2018-07-28T09:19:42.810Z,57.2
2018-07-28T09:20:32.855Z,57.3
2018-07-28T09:21:22.642Z,57.4
2018-07-28T09:22:12.707Z,57.2
2018-07-28T09:23:03.052Z,57.1
2018-07-28T09:23:52.851Z,57.4
2018-07-28T09:24:43.200Z,57.6
2018-07-28T09:25:33.280Z,57.9
2018-07-28T09:26:23.325Z,58.1
2018-07-28T09:27:13.375Z,58.3
2018-07-28T09:28:03.442Z,58.4
2018-07-28T09:29:43.571Z,58.6
2018-07-28T09:30:33.870Z,58.8
2018-07-28T09:31:23.440Z,58.9
2018-07-28T09:32:13.762Z,59
2018-07-28T09:33:03.854Z,59.2
2018-07-28T09:33:53.893Z,59.3
2018-07-28T09:34:43.960Z,59.4
2018-07-28T09:35:34.034Z,59.5
2018-07-28T09:36:24.102Z,59.6
2018-07-28T09:37:14.158Z,59.7
2018-07-28T09:38:04.224Z,59.8
2018-07-28T09:38:54.314Z,59.9
2018-07-28T09:39:44.066Z,60.1
2018-07-28T09:40:34.423Z,60.2
2018-07-28T09:41:24.465Z,60.3
2018-07-28T09:42:14.270Z,60.4
2018-07-28T09:43:04.332Z,60.5
2018-07-28T09:43:54.662Z,60.6
2018-07-28T09:44:44.741Z,60.8
2018-07-28T09:45:34.804Z,60.8
2018-07-28T09:46:25.180Z,60.9
2018-07-28T09:47:14.948Z,60.9
2018-07-28T09:48:04.730Z,61.1
2018-07-28T09:48:55.055Z,61.2
2018-07-28T09:49:44.859Z,61.3
2018-07-28T09:50:35.178Z,61.3
2018-07-28T09:51:25.254Z,61.4
2018-07-28T09:52:15.027Z,61.5
2018-07-28T09:53:05.366Z,61.5
2018-07-28T09:53:55.439Z,61.6
2018-07-28T09:54:45.255Z,61.7
2018-07-28T09:55:35.577Z,61.8
2018-07-28T09:56:25.641Z,61.9
2018-07-28T09:57:15.719Z,62
2018-07-28T09:58:05.504Z,62.1
2018-07-28T09:58:55.860Z,62.1
2018-07-28T09:59:45.629Z,62.1
2018-07-28T10:00:35.995Z,62.3
2018-07-28T10:01:25.874Z,62.3
2018-07-28T10:02:16.125Z,62.4
2018-07-28T10:03:06.182Z,62.5
2018-07-28T10:03:55.970Z,62.6
2018-07-28T10:04:46.025Z,62.6
2018-07-28T10:05:36.633Z,62.7
2018-07-28T10:06:26.434Z,62.8
2018-07-28T10:07:16.501Z,62.8
2018-07-28T10:08:06.572Z,62.9
2018-07-28T10:08:56.636Z,63
2018-07-28T10:09:46.697Z,63.1
2018-07-28T10:10:36.478Z,63.2
2018-07-28T10:11:26.821Z,63.3
2018-07-28T10:12:16.891Z,63.3
2018-07-28T10:13:06.956Z,63.4
2018-07-28T10:13:57.018Z,63.4
2018-07-28T10:14:47.100Z,63.5
2018-07-28T10:15:37.152Z,63.6
2018-07-28T10:16:26.935Z,63.7
2018-07-28T10:17:17.264Z,63.8
2018-07-28T10:18:07.350Z,63.8
2018-07-28T10:18:57.134Z,63.8
2018-07-28T10:19:47.464Z,63.9
2018-07-28T10:20:37.544Z,64
2018-07-28T10:21:27.606Z,64.1
2018-07-28T10:22:17.664Z,64.1
2018-07-28T10:23:07.452Z,64.2
2018-07-28T10:23:57.822Z,64.3
2018-07-28T10:24:47.840Z,64.4
2018-07-28T10:25:37.932Z,64.4
2018-07-28T10:26:27.995Z,64.5
2018-07-28T10:27:18.090Z,64.6
2018-07-28T10:28:08.212Z,64.6
2018-07-28T10:28:58.193Z,64.7
2018-07-28T10:29:48.270Z,64.8
2018-07-28T10:30:38.317Z,64.8
2018-07-28T10:31:28.379Z,64.8
2018-07-28T10:32:18.434Z,64.4
2018-07-28T10:33:08.232Z,64.1
2018-07-28T10:33:58.299Z,63.9
2018-07-28T10:34:48.758Z,64.1
2018-07-28T10:35:38.460Z,64.4
2018-07-28T10:36:29.534Z,64.8
2018-07-28T10:37:18.564Z,64.9
2018-07-28T10:38:08.962Z,65
2018-07-28T10:38:58.711Z,65.1
2018-07-28T10:39:49.047Z,65.1
2018-07-28T10:40:39.105Z,65.2
2018-07-28T10:41:28.926Z,65.3
2018-07-28T10:42:18.992Z,65.4
2018-07-28T10:43:09.333Z,65.4
2018-07-28T10:43:59.364Z,65.5
2018-07-28T10:44:49.146Z,65.6
2018-07-28T10:45:39.899Z,65.6
2018-07-28T10:46:29.553Z,65.7
2018-07-28T10:47:19.635Z,65.8
2018-07-28T10:48:09.715Z,65.8
2018-07-28T10:48:59.757Z,65.9
2018-07-28T10:49:49.833Z,65.9
2018-07-28T10:50:39.623Z,66
2018-07-28T10:51:29.668Z,66.1
2018-07-28T10:52:19.999Z,66.1
2018-07-28T10:53:09.799Z,66.1
2018-07-28T10:54:00.129Z,66.1
2018-07-28T10:54:50.224Z,66.3
2018-07-28T10:55:40.012Z,66.3
2018-07-28T10:56:30.346Z,66.4
2018-07-28T10:57:20.420Z,66.4
2018-07-28T10:58:10.176Z,66.5
2018-07-28T10:59:00.549Z,66.6
2018-07-28T10:59:50.579Z,66.6
2018-07-28T11:00:40.652Z,66.6
2018-07-28T11:01:30.719Z,66.8
2018-07-28T11:02:20.785Z,66.8
2018-07-28T11:03:10.843Z,66.8
2018-07-28T11:04:00.690Z,66.9
2018-07-28T11:04:51.000Z,66.9
2018-07-28T11:05:41.040Z,67.1
2018-07-28T11:06:30.826Z,67.1
2018-07-28T11:07:21.165Z,67.1
2018-07-28T11:08:11.239Z,67.1
2018-07-28T11:09:01.113Z,67.2
2018-07-28T11:09:51.111Z,67.3
2018-07-28T11:10:41.450Z,67.3
2018-07-28T11:11:31.525Z,67.3
2018-07-28T11:12:21.309Z,67.3
2018-07-28T11:13:11.694Z,67.4
2018-07-28T11:14:01.699Z,67.4
2018-07-28T11:14:51.498Z,67.5
2018-07-28T11:15:41.836Z,67.5
2018-07-28T11:16:31.896Z,67.6
2018-07-28T11:17:21.421Z,67.6
2018-07-28T11:18:12.084Z,67.6